createdAt,value
2022-12-18T00:01:37.016Z,26.17
2022-12-18T00:04:31.006Z,26.65
2022-12-18T00:07:11.098Z,27.67
2022-12-18T00:09:57.951Z,29.27
2022-12-18T00:12:38.005Z,29.67
2022-12-18T00:15:24.986Z,27.77
2022-12-18T00:18:05.003Z,30.63
2022-12-18T00:20:51.981Z,27.60
2022-12-18T00:23:32.006Z,28.02
2022-12-18T00:26:22.973Z,27.00
2022-12-18T00:29:08.066Z,27.55
2022-12-18T00:31:57.018Z,29.13
2022-12-18T00:34:37.046Z,30.15
2022-12-18T00:37:23.949Z,25.98
2022-12-18T00:40:04.025Z,28.27
2022-12-18T00:43:02.965Z,29.50
2022-12-18T00:45:43.080Z,29.98
2022-12-18T00:48:29.958Z,29.20
2022-12-18T00:51:10.005Z,31.85
2022-12-18T00:53:56.961Z,30.83
2022-12-18T00:56:45.761Z,29.73
2022-12-18T00:59:36.991Z,31.27
2022-12-18T01:02:18.179Z,31.70
2022-12-18T01:05:04.979Z,30.10
2022-12-18T01:07:52.972Z,30.65
2022-12-18T01:10:40.288Z,28.98
2022-12-18T01:13:26.972Z,28.92
2022-12-18T01:16:07.091Z,36.83
2022-12-18T01:18:53.967Z,30.75
2022-12-18T01:21:41.960Z,31.35
2022-12-18T01:24:22.451Z,29.33
2022-12-18T01:27:08.975Z,30.17
2022-12-18T01:29:57.011Z,28.00
2022-12-18T01:32:44.966Z,30.30
2022-12-18T01:35:32.015Z,33.60
2022-12-18T01:38:12.965Z,29.75
2022-12-18T01:40:59.013Z,32.05
2022-12-18T01:44:15.968Z,30.60
2022-12-18T01:47:03.027Z,30.95
2022-12-18T01:49:42.951Z,32.90
2022-12-18T01:52:25.261Z,30.65
2022-12-18T01:55:13.950Z,32.40
2022-12-18T01:58:03.969Z,32.97
2022-12-18T02:00:44.056Z,29.88
2022-12-18T02:03:32.943Z,28.33
2022-12-18T02:06:36.026Z,30.08
2022-12-18T02:09:34.946Z,32.95
2022-12-18T02:12:32.955Z,33.95
2022-12-18T02:15:52.200Z,30.98
2022-12-18T02:18:44.958Z,30.55
2022-12-18T02:22:10.959Z,32.60
2022-12-18T02:25:30.967Z,30.13
2022-12-18T02:28:22.953Z,30.92
2022-12-18T02:31:09.073Z,38.53
2022-12-18T02:33:59.961Z,30.88
2022-12-18T02:36:54.980Z,31.25
2022-12-18T02:39:44.023Z,32.58
2022-12-18T02:42:24.953Z,29.42
2022-12-18T02:45:06.163Z,29.10
2022-12-18T02:47:59.966Z,30.92
2022-12-18T02:50:48.393Z,30.55
2022-12-18T02:53:50.942Z,29.40
2022-12-18T02:56:45.971Z,28.08
2022-12-18T02:59:40.937Z,28.65
2022-12-18T03:02:45.104Z,30.63
2022-12-18T03:05:27.015Z,30.45
2022-12-18T03:08:35.951Z,31.48
2022-12-18T03:11:44.973Z,29.70
2022-12-18T03:14:28.051Z,28.02
2022-12-18T03:17:21.962Z,30.13
2022-12-18T03:20:15.032Z,30.13
2022-12-18T03:23:00.967Z,27.33
2022-12-18T03:25:51.014Z,31.02
2022-12-18T03:28:37.979Z,29.17
2022-12-18T03:31:35.966Z,27.15
2022-12-18T03:34:29.948Z,26.63
2022-12-18T03:37:14.018Z,27.90
2022-12-18T03:40:00.955Z,27.48
2022-12-18T03:43:04.965Z,28.25
2022-12-18T03:46:02.030Z,27.55
2022-12-18T03:48:57.964Z,27.58
2022-12-18T03:51:57.982Z,27.15
2022-12-18T03:54:53.963Z,26.45
2022-12-18T03:57:35.754Z,27.35
2022-12-18T04:00:27.951Z,26.23
2022-12-18T04:03:14.883Z,28.17
2022-12-18T04:06:05.963Z,27.77
2022-12-18T04:08:54.994Z,29.30
2022-12-18T04:11:43.959Z,33.42
2022-12-18T04:17:14.953Z,25.88
2022-12-18T04:19:55.440Z,25.15
2022-12-18T04:22:43.953Z,27.70
2022-12-18T04:25:26.450Z,27.42
2022-12-18T04:31:00.024Z,21.27
2022-12-18T04:33:47.025Z,25.38
2022-12-18T04:41:54.959Z,22.02
2022-12-18T04:47:35.974Z,23.42
2022-12-18T04:50:16.014Z,21.20
2022-12-18T04:53:02.986Z,20.58
2022-12-18T04:55:56.972Z,20.80
2022-12-18T04:58:38.720Z,22.10
2022-12-18T05:01:34.336Z,22.92
2022-12-18T05:04:28.959Z,20.25
2022-12-18T05:07:09.450Z,21.40
2022-12-18T05:09:55.958Z,20.95
2022-12-18T05:12:56.425Z,19.90
2022-12-18T05:15:47.073Z,21.35
2022-12-18T05:18:27.991Z,19.77
2022-12-18T05:21:14.975Z,19.75
2022-12-18T05:24:02.006Z,20.48
2022-12-18T05:26:41.974Z,19.55
2022-12-18T05:29:28.947Z,19.52
2022-12-18T05:32:09.018Z,18.95
2022-12-18T05:34:55.974Z,18.90
2022-12-18T05:37:42.490Z,18.35
2022-12-18T05:40:29.982Z,20.33
2022-12-18T05:43:10.058Z,19.27
2022-12-18T05:45:56.970Z,17.40
2022-12-18T05:48:37.021Z,17.40
2022-12-18T05:51:26.943Z,18.48
2022-12-18T05:54:20.953Z,20.05
2022-12-18T05:57:07.954Z,20.52
2022-12-18T05:59:54.962Z,17.73
2022-12-18T06:02:55.094Z,17.63
2022-12-18T06:05:42.988Z,17.98
2022-12-18T06:08:30.081Z,17.65
2022-12-18T06:11:09.966Z,23.95
2022-12-18T06:14:01.974Z,19.80
2022-12-18T06:16:42.011Z,20.10
2022-12-18T06:19:28.966Z,17.83
2022-12-18T06:22:09.005Z,19.23
2022-12-18T06:24:55.961Z,18.17
2022-12-18T06:27:42.949Z,18.50
2022-12-18T06:30:23.495Z,15.00
2022-12-18T06:33:09.947Z,18.35
2022-12-18T06:36:01.017Z,16.52
2022-12-18T06:38:43.226Z,17.13
2022-12-18T06:41:29.999Z,16.65
2022-12-18T06:44:11.000Z,18.40
2022-12-18T06:46:51.426Z,17.45
2022-12-18T06:49:37.944Z,17.80
2022-12-18T06:52:25.005Z,18.15
2022-12-18T06:55:19.946Z,20.30
2022-12-18T06:58:06.965Z,17.65
2022-12-18T07:00:48.044Z,16.05
2022-12-18T07:03:35.037Z,19.15
2022-12-18T07:06:22.007Z,16.33
2022-12-18T07:09:08.947Z,18.13
2022-12-18T07:11:55.984Z,18.33
2022-12-18T07:14:36.410Z,17.30
2022-12-18T07:17:22.961Z,15.75
2022-12-18T07:20:09.977Z,20.10
2022-12-18T07:22:56.970Z,16.08
2022-12-18T07:25:38.039Z,16.70
2022-12-18T07:28:24.940Z,16.65
2022-12-18T07:31:25.017Z,15.00
2022-12-18T07:34:05.413Z,16.20
2022-12-18T07:36:51.975Z,16.75
2022-12-18T07:39:39.009Z,16.30
2022-12-18T07:42:37.961Z,17.98
2022-12-18T07:45:24.945Z,16.50
2022-12-18T07:48:12.046Z,14.68
2022-12-18T07:50:52.949Z,15.50
2022-12-18T07:53:41.210Z,14.30
2022-12-18T07:56:29.389Z,16.67
2022-12-18T07:59:09.943Z,13.90
2022-12-18T08:01:57.096Z,12.93
2022-12-18T08:04:37.079Z,13.90
2022-12-18T08:07:23.933Z,16.63
2022-12-18T08:10:04.010Z,15.43
2022-12-18T08:12:50.947Z,15.13
2022-12-18T08:15:31.019Z,15.35
2022-12-18T08:18:17.958Z,15.25
2022-12-18T08:20:58.038Z,15.15
2022-12-18T08:23:45.486Z,15.38
2022-12-18T08:26:24.997Z,14.48
2022-12-18T08:29:11.946Z,16.15
2022-12-18T08:31:58.994Z,16.27
2022-12-18T08:34:39.449Z,16.85
2022-12-18T08:37:25.957Z,15.15
2022-12-18T08:40:07.314Z,16.98
2022-12-18T08:43:12.952Z,15.57
2022-12-18T08:45:53.622Z,15.43
2022-12-18T08:48:39.956Z,15.05
2022-12-18T08:51:28.004Z,16.00
2022-12-18T08:54:24.976Z,14.80
2022-12-18T08:57:11.953Z,17.27
2022-12-18T08:59:58.946Z,22.63
2022-12-18T09:02:39.752Z,20.65
2022-12-18T09:05:26.942Z,14.65
2022-12-18T09:08:14.016Z,18.67
2022-12-18T09:10:56.946Z,16.58
2022-12-18T09:13:37.656Z,14.63
2022-12-18T09:16:28.787Z,16.55
2022-12-18T09:19:17.933Z,19.15
2022-12-18T09:21:57.990Z,14.98
2022-12-18T09:24:44.927Z,14.68
2022-12-18T09:27:25.034Z,14.80
2022-12-18T09:30:12.953Z,16.35
2022-12-18T09:32:53.015Z,15.68
2022-12-18T09:35:39.966Z,14.23
2022-12-18T09:38:34.871Z,15.40
2022-12-18T09:41:44.966Z,14.25
2022-12-18T09:44:48.972Z,16.70
2022-12-18T09:47:35.516Z,15.23
2022-12-18T09:50:41.940Z,13.60
2022-12-18T09:53:27.573Z,14.88
2022-12-18T09:56:15.945Z,14.88
2022-12-18T09:59:07.966Z,13.27
2022-12-18T10:01:55.038Z,14.60
2022-12-18T10:04:35.644Z,14.55
2022-12-18T10:07:36.956Z,12.60
2022-12-18T10:10:24.337Z,14.68
2022-12-18T10:13:23.756Z,15.18
2022-12-18T10:16:14.035Z,11.60
2022-12-18T10:19:12.963Z,13.35
2022-12-18T10:22:17.977Z,13.25
2022-12-18T10:25:06.967Z,13.32
2022-12-18T10:27:53.963Z,12.57
2022-12-18T10:30:33.998Z,12.98
2022-12-18T10:33:26.948Z,12.80
2022-12-18T10:36:07.287Z,13.55
2022-12-18T10:38:53.963Z,12.98
2022-12-18T10:41:41.967Z,12.32
2022-12-18T10:44:30.973Z,12.93
2022-12-18T10:47:14.056Z,11.98
2022-12-18T10:50:02.940Z,12.38
2022-12-18T10:52:49.966Z,12.93
2022-12-18T10:55:45.948Z,11.13
2022-12-18T10:58:42.475Z,12.00
2022-12-18T11:01:29.044Z,14.07
2022-12-18T11:04:22.965Z,12.50
2022-12-18T11:07:09.371Z,11.27
2022-12-18T11:09:55.940Z,12.45
2022-12-18T11:12:36.432Z,13.20
2022-12-18T11:15:50.002Z,12.35
2022-12-18T11:18:42.319Z,11.10
2022-12-18T11:21:22.032Z,11.02
2022-12-18T11:24:08.964Z,10.65
2022-12-18T11:26:59.673Z,11.93
2022-12-18T11:29:47.938Z,12.70
2022-12-18T11:32:45.025Z,13.05
2022-12-18T11:35:47.956Z,11.00
2022-12-18T11:38:30.002Z,12.52
2022-12-18T11:42:04.942Z,11.40
2022-12-18T11:45:30.103Z,11.98
2022-12-18T11:48:28.965Z,11.45
2022-12-18T11:51:13.033Z,12.75
2022-12-18T11:53:59.954Z,11.45
2022-12-18T11:57:02.975Z,11.73
2022-12-18T12:00:02.955Z,12.52
2022-12-18T12:03:11.051Z,12.30
2022-12-18T12:06:02.053Z,10.68
2022-12-18T12:09:00.938Z,10.85
2022-12-18T12:12:00.191Z,11.27
2022-12-18T12:15:00.943Z,10.80
2022-12-18T12:18:12.959Z,13.13
2022-12-18T12:21:30.945Z,11.70
2022-12-18T12:27:42.962Z,11.85
2022-12-18T12:31:01.951Z,11.43
2022-12-18T12:34:13.943Z,10.82
2022-12-18T12:37:03.972Z,13.00
2022-12-18T12:39:51.172Z,9.73
2022-12-18T12:43:09.975Z,12.20
2022-12-18T12:45:51.215Z,11.82
2022-12-18T12:49:00.966Z,13.68
2022-12-18T12:51:48.015Z,13.43
2022-12-18T12:54:36.958Z,13.90
2022-12-18T12:57:28.014Z,12.05
2022-12-18T13:00:24.981Z,11.98
2022-12-18T13:03:39.019Z,12.05
2022-12-18T13:06:44.526Z,11.32
2022-12-18T13:09:25.066Z,12.30
2022-12-18T13:12:36.983Z,12.32
2022-12-18T13:15:48.965Z,11.73
2022-12-18T13:18:30.674Z,12.52
2022-12-18T13:21:31.987Z,12.55
2022-12-18T13:24:24.721Z,14.63
2022-12-18T13:27:10.967Z,13.10
2022-12-18T13:30:04.944Z,12.05
2022-12-18T13:32:45.469Z,12.27
2022-12-18T13:35:31.963Z,12.27
2022-12-18T13:38:42.009Z,11.35
2022-12-18T13:41:24.958Z,11.82
2022-12-18T13:44:38.536Z,11.73
2022-12-18T13:47:47.000Z,11.82
2022-12-18T13:50:36.002Z,12.40
2022-12-18T13:53:29.405Z,13.05
2022-12-18T13:56:15.965Z,12.23
2022-12-18T13:59:58.978Z,12.43
2022-12-18T14:02:53.225Z,11.75
2022-12-18T14:05:35.983Z,12.60
2022-12-18T14:08:27.269Z,14.02
2022-12-18T14:11:08.929Z,12.82
2022-12-18T14:13:51.872Z,10.90
2022-12-18T14:16:38.999Z,12.93
2022-12-18T14:19:26.586Z,11.27
2022-12-18T14:22:05.951Z,12.18
2022-12-18T14:24:46.865Z,12.68
2022-12-18T14:27:38.947Z,12.95
2022-12-18T14:30:46.000Z,14.45
2022-12-18T14:33:28.471Z,14.10
2022-12-18T14:36:18.954Z,11.93
2022-12-18T14:39:00.212Z,13.95
2022-12-18T14:41:46.958Z,13.45
2022-12-18T14:44:34.564Z,12.98
2022-12-18T14:47:30.967Z,12.05
2022-12-18T14:50:22.154Z,13.02
2022-12-18T14:53:01.949Z,13.07
2022-12-18T14:55:54.954Z,13.68
2022-12-18T14:58:36.023Z,14.48
2022-12-18T15:01:46.033Z,13.73
2022-12-18T15:05:13.968Z,14.85
2022-12-18T15:08:02.962Z,14.77
2022-12-18T15:10:55.063Z,14.65
2022-12-18T15:13:42.377Z,13.63
2022-12-18T15:16:29.053Z,17.35
2022-12-18T15:19:16.481Z,14.07
2022-12-18T15:22:00.265Z,14.23
2022-12-18T15:24:44.550Z,13.10
2022-12-18T15:28:00.964Z,14.10
2022-12-18T15:31:02.832Z,14.43
2022-12-18T15:33:56.950Z,13.68
2022-12-18T15:36:43.958Z,14.80
2022-12-18T15:39:24.060Z,12.38
2022-12-18T15:42:29.952Z,15.85
2022-12-18T15:45:10.078Z,13.15
2022-12-18T15:47:56.963Z,16.50
2022-12-18T15:50:37.020Z,13.93
2022-12-18T15:53:23.954Z,15.00
2022-12-18T15:56:29.947Z,14.57
2022-12-18T15:59:22.975Z,17.02
2022-12-18T16:02:10.085Z,14.85
2022-12-18T16:04:58.958Z,16.98
2022-12-18T16:07:39.024Z,15.02
2022-12-18T16:10:25.970Z,14.77
2022-12-18T16:13:06.016Z,16.17
2022-12-18T16:15:52.992Z,14.90
2022-12-18T16:18:33.032Z,16.17
2022-12-18T16:21:19.958Z,16.35
2022-12-18T16:24:06.962Z,15.15
2022-12-18T16:26:53.955Z,14.57
2022-12-18T16:29:36.040Z,14.98
2022-12-18T16:32:25.958Z,18.20
2022-12-18T16:35:08.058Z,15.68
2022-12-18T16:37:54.965Z,15.15
2022-12-18T16:40:54.979Z,14.52
2022-12-18T16:43:42.316Z,16.08
2022-12-18T16:46:29.116Z,16.73
2022-12-18T16:49:10.040Z,18.25
2022-12-18T16:51:57.971Z,15.63
2022-12-18T16:54:38.485Z,15.77
2022-12-18T16:57:30.962Z,17.08
2022-12-18T17:00:18.963Z,17.02
2022-12-18T17:02:59.150Z,15.15
2022-12-18T17:05:51.495Z,15.60
2022-12-18T17:08:33.029Z,16.88
2022-12-18T17:11:19.976Z,16.48
2022-12-18T17:14:00.024Z,16.50
2022-12-18T17:19:53.957Z,14.70
2022-12-18T17:22:41.106Z,16.95
2022-12-18T17:25:20.972Z,15.13
2022-12-18T17:28:01.438Z,15.93
2022-12-18T17:30:47.979Z,16.90
2022-12-18T17:33:28.443Z,18.77
2022-12-18T17:36:14.960Z,17.70
2022-12-18T17:39:03.954Z,16.85
2022-12-18T17:41:44.025Z,16.90
2022-12-18T17:44:30.962Z,15.20
2022-12-18T17:47:12.182Z,17.92
2022-12-18T17:49:58.958Z,17.63
2022-12-18T17:52:40.034Z,18.65
2022-12-18T17:55:26.963Z,18.30
2022-12-18T17:58:07.088Z,18.08
2022-12-18T18:00:53.970Z,18.30
2022-12-18T18:03:34.193Z,17.08
2022-12-18T18:06:21.957Z,16.85
2022-12-18T18:09:02.020Z,17.63
2022-12-18T18:12:07.957Z,21.75
2022-12-18T18:14:48.035Z,17.70
2022-12-18T18:17:34.965Z,16.30
2022-12-18T18:20:23.064Z,16.20
2022-12-18T18:23:03.453Z,18.02
2022-12-18T18:25:50.978Z,16.45
2022-12-18T18:28:39.974Z,17.70
2022-12-18T18:31:20.054Z,16.70
2022-12-18T18:34:07.971Z,18.60
2022-12-18T18:36:48.013Z,16.40
2022-12-18T18:39:36.950Z,16.50
2022-12-18T18:42:17.024Z,17.27
2022-12-18T18:45:03.949Z,17.42
2022-12-18T18:47:44.009Z,19.52
2022-12-18T18:50:30.969Z,17.30
2022-12-18T18:53:17.980Z,16.15
2022-12-18T18:59:19.982Z,17.45
2022-12-18T19:02:10.154Z,19.58
2022-12-18T19:04:50.428Z,17.75
2022-12-18T19:07:36.987Z,18.23
2022-12-18T19:10:17.442Z,17.70
2022-12-18T19:13:22.004Z,17.30
2022-12-18T19:16:08.457Z,17.10
2022-12-18T19:19:01.336Z,18.23
2022-12-18T19:21:50.017Z,18.02
2022-12-18T19:24:29.976Z,17.83
2022-12-18T19:27:10.955Z,17.88
2022-12-18T19:29:57.975Z,18.10
2022-12-18T19:32:44.984Z,16.92
2022-12-18T19:35:31.967Z,20.02
2022-12-18T19:38:12.481Z,16.65
2022-12-18T19:40:59.995Z,18.17
2022-12-18T19:43:47.032Z,18.63
2022-12-18T19:46:29.981Z,17.27
2022-12-18T19:49:18.329Z,18.05
2022-12-18T19:51:57.977Z,16.55
2022-12-18T19:54:45.015Z,18.85
2022-12-18T19:57:31.954Z,19.27
2022-12-18T20:00:18.535Z,17.52
2022-12-18T20:03:17.654Z,17.85
2022-12-18T20:06:14.086Z,19.67
2022-12-18T20:09:02.975Z,19.38
2022-12-18T20:11:43.119Z,19.55
2022-12-18T20:14:29.966Z,17.05
2022-12-18T20:17:10.035Z,15.85
2022-12-18T20:19:56.963Z,18.48
2022-12-18T20:22:37.054Z,17.52
2022-12-18T20:25:23.988Z,16.88
2022-12-18T20:28:04.032Z,17.10
2022-12-18T20:30:50.983Z,23.23
2022-12-18T20:33:31.021Z,23.27
2022-12-18T20:36:23.526Z,21.23
2022-12-18T20:39:12.302Z,22.95
2022-12-18T20:41:59.972Z,23.63
2022-12-18T20:44:40.030Z,23.63
2022-12-18T20:47:26.971Z,25.70
2022-12-18T20:50:07.076Z,22.42
2022-12-18T20:52:54.970Z,27.27
2022-12-18T20:55:35.016Z,24.92
2022-12-18T20:58:21.977Z,24.83
2022-12-18T21:01:27.074Z,26.00
2022-12-18T21:04:07.581Z,26.08
2022-12-18T21:06:59.109Z,23.10
2022-12-18T21:09:49.043Z,23.55
2022-12-18T21:12:45.343Z,26.13
2022-12-18T21:15:31.462Z,27.83
2022-12-18T21:18:17.979Z,27.10
2022-12-18T21:21:04.954Z,25.92
2022-12-18T21:23:45.031Z,25.20
2022-12-18T21:26:35.005Z,25.70
2022-12-18T21:29:26.170Z,26.33
2022-12-18T21:32:12.991Z,30.52
2022-12-18T21:34:59.948Z,27.48
2022-12-18T21:37:47.019Z,28.30
2022-12-18T21:40:26.963Z,28.80
2022-12-18T21:43:34.969Z,27.05
2022-12-18T21:46:15.042Z,25.85
2022-12-18T21:49:01.970Z,28.13
2022-12-18T21:51:49.953Z,27.85
2022-12-18T21:54:30.832Z,30.95
2022-12-18T21:57:19.977Z,30.77
2022-12-18T22:00:07.027Z,28.33
2022-12-18T22:02:47.266Z,27.30
2022-12-18T22:05:34.010Z,26.85
2022-12-18T22:08:13.986Z,29.83
2022-12-18T22:10:54.451Z,28.58
2022-12-18T22:13:40.958Z,29.80
2022-12-18T22:16:28.132Z,28.92
2022-12-18T22:19:07.962Z,27.23
2022-12-18T22:21:56.048Z,30.50
2022-12-18T22:24:35.948Z,30.73
2022-12-18T22:27:22.942Z,31.25
2022-12-18T22:30:12.973Z,29.42
2022-12-18T22:32:53.499Z,30.17
2022-12-18T22:35:39.964Z,29.92
2022-12-18T22:38:20.477Z,27.52
2022-12-18T22:41:07.979Z,29.75
2022-12-18T22:43:55.012Z,28.42
2022-12-18T22:46:40.027Z,28.75
2022-12-18T22:49:29.040Z,26.75
2022-12-18T22:52:10.975Z,28.95
2022-12-18T22:55:12.966Z,30.13
2022-12-18T22:58:06.968Z,27.58
2022-12-18T23:00:54.066Z,28.70
2022-12-18T23:03:34.003Z,30.60
2022-12-18T23:06:14.541Z,28.92
2022-12-18T23:09:01.964Z,30.65
2022-12-18T23:11:49.050Z,28.27
2022-12-18T23:14:28.953Z,32.58
2022-12-18T23:17:15.977Z,27.23
2022-12-18T23:19:56.019Z,29.40
2022-12-18T23:22:42.958Z,32.05
2022-12-18T23:25:23.052Z,29.92
2022-12-18T23:28:09.974Z,29.08
2022-12-18T23:30:50.128Z,30.13
2022-12-18T23:33:36.975Z,29.73
2022-12-18T23:36:24.955Z,29.88
2022-12-18T23:39:15.435Z,29.52
2022-12-18T23:42:08.993Z,30.27
2022-12-18T23:44:55.962Z,30.88
2022-12-18T23:47:37.078Z,27.63
2022-12-18T23:50:28.892Z,28.10
2022-12-18T23:53:10.966Z,28.95
2022-12-18T23:55:58.957Z,31.10
2022-12-18T23:58:47.088Z,31.60
